Oki, Japan

12:42 PM JST on July 30, 2014 (GMT +0900)
Miho Aero (RJOH) Elev 20 ft | 35.49 °N, 133.24 °E | Change Station

Current weather conditions updated 42 minutes ago

Partly Cloudy
Partly Cloudy
91 °F
Feels Like 105 °F
N
6
Wind Variable Wind from NE

Today is forecast to be Warmer than yesterday.

Today
High -- | Low -- °F
--% Chance of Precip.
Yesterday
High -- | Low -- °F
Precip. -- in
5:11 AM 7:14 PM
Waxing Crescent, 9% visible
Pressure 29.89 in
Visibility 6.2 miles
Clouds Few 3500 ft
Heat Index 105 °F
Dew Point 77 °F
Humidity 63%
Rainfall 0.00 in
Snow Depth Not available.
UV 12 out of 12
Pollen Not available.
Air Quality Not available.
Flu Activity Not available.
METAR RJOH 300300Z 05005KT 020V120 9999 FEW035 33/25 Q1012

More Conditions Fewer Conditions

Pressure 29.89 in
Visibility 6.2 miles
Clouds Few 3500 ft
Heat Index 105 °F
Dew Point 77 °F
Humidity 63%
Rainfall 0.00 in
Snow Depth Not available.
UV 12 out of 12
Pollen Not available.
Air Quality Not available.
Flu Activity Not available.
METAR RJOH 300300Z 05005KT 020V120 9999 FEW035 33/25 Q1012

More Conditions Fewer Conditions

10-Day Weather Forecast

Almanac

Astronomy

Jul. 30, 2014 Rise Set
Actual Time 5:11 AM JST 7:14 PM JST
Civil Twilight 4:43 AM JST 7:42 PM JST
Nautical Twilight 4:08 AM JST 8:17 PM JST
Astronomical Twilight 3:30 AM JST 8:54 PM JST
Moon 8:02 AM JST 8:45 PM JST
Length of Visible Light 14h 59m
Length of Day
14h 02m
Tomorrow will be 1m 40s shorter.
Waxing Crescent, 9% of the Moon is Illuminated
Jul 29
Waxing Crescent
Aug 3
First Quarter
Aug 10
Full
Aug 17
Last Quarter
Aug 25
New

Yesterday's Extremes

Country Highs Country Lows

Community

WunderPhotos

Upload Photos

1,738,991 photos uploaded!

WunderBlogs® & News

Nearby

Snow Depth

Not available.

Earthquake Activity

City Distance Mag. Time & Date
No recent earthquake activity has been reported nearby.
Minimum magnitude displayed is 2.5.

Coastal Water Temperatures

Place Temperature
No Stations Reporting

Nearby Weather Stations

There are no personal weather stations in this area.